sensor_id;sensor_type;location;lat;lon;timestamp;pressure;altitude;pressure_sealevel;temperature;humidity
20628;BME280;10473;42.734;24.258;2022-08-27T00:01:40;91586.84;;;19.02;61.13
20628;BME280;10473;42.734;24.258;2022-08-27T00:04:08;91590.91;;;19.07;60.93
20628;BME280;10473;42.734;24.258;2022-08-27T00:06:36;91593.44;;;19.14;60.59
20628;BME280;10473;42.734;24.258;2022-08-27T00:09:03;91594.84;;;18.90;61.26
20628;BME280;10473;42.734;24.258;2022-08-27T00:11:31;91590.56;;;18.92;60.13
20628;BME280;10473;42.734;24.258;2022-08-27T00:14:01;91592.97;;;18.42;62.35
20628;BME280;10473;42.734;24.258;2022-08-27T00:16:29;91596.22;;;18.02;64.24
20628;BME280;10473;42.734;24.258;2022-08-27T00:18:57;91586.69;;;18.33;62.80
20628;BME280;10473;42.734;24.258;2022-08-27T00:21:25;91584.25;;;18.54;62.33
20628;BME280;10473;42.734;24.258;2022-08-27T00:23:53;91588.44;;;18.55;63.00
20628;BME280;10473;42.734;24.258;2022-08-27T00:26:21;91584.47;;;18.28;63.20
20628;BME280;10473;42.734;24.258;2022-08-27T00:28:49;91586.69;;;18.33;63.05
20628;BME280;10473;42.734;24.258;2022-08-27T00:31:18;91591.09;;;18.55;62.49
20628;BME280;10473;42.734;24.258;2022-08-27T00:33:46;91593.22;;;18.64;62.72
20628;BME280;10473;42.734;24.258;2022-08-27T00:36:14;91594.88;;;18.58;63.38
20628;BME280;10473;42.734;24.258;2022-08-27T00:38:41;91598.25;;;18.46;62.95
20628;BME280;10473;42.734;24.258;2022-08-27T00:41:10;91598.94;;;18.50;63.34
20628;BME280;10473;42.734;24.258;2022-08-27T00:43:44;91606.97;;;18.66;62.29
20628;BME280;10473;42.734;24.258;2022-08-27T00:46:19;91591.03;;;18.59;62.70
20628;BME280;10473;42.734;24.258;2022-08-27T00:48:50;91601.50;;;18.69;62.91
20628;BME280;10473;42.734;24.258;2022-08-27T00:51:19;91595.56;;;18.62;62.36
20628;BME280;10473;42.734;24.258;2022-08-27T00:53:47;91596.41;;;18.59;62.91
20628;BME280;10473;42.734;24.258;2022-08-27T00:56:18;91593.13;;;18.67;62.44
20628;BME280;10473;42.734;24.258;2022-08-27T00:58:49;91594.22;;;18.70;62.42
20628;BME280;10473;42.734;24.258;2022-08-27T01:01:21;91569.25;;;18.41;62.99
20628;BME280;10473;42.734;24.258;2022-08-27T01:03:52;91589.44;;;18.61;62.60
20628;BME280;10473;42.734;24.258;2022-08-27T01:06:22;91597.06;;;18.63;62.57
20628;BME280;10473;42.734;24.258;2022-08-27T01:08:56;91591.88;;;18.56;62.94
20628;BME280;10473;42.734;24.258;2022-08-27T01:11:26;91558.94;;;18.39;62.63
20628;BME280;10473;42.734;24.258;2022-08-27T01:13:54;91585.69;;;18.59;62.35
20628;BME280;10473;42.734;24.258;2022-08-27T01:16:25;91578.47;;;18.40;63.47
20628;BME280;10473;42.734;24.258;2022-08-27T01:18:57;91580.16;;;18.50;63.20
20628;BME280;10473;42.734;24.258;2022-08-27T01:21:33;91574.44;;;18.48;63.17
20628;BME280;10473;42.734;24.258;2022-08-27T01:24:07;91589.38;;;18.33;63.65
20628;BME280;10473;42.734;24.258;2022-08-27T01:26:37;91581.22;;;18.20;63.97
20628;BME280;10473;42.734;24.258;2022-08-27T01:29:06;91582.16;;;18.30;63.73
20628;BME280;10473;42.734;24.258;2022-08-27T01:31:34;91582.31;;;18.39;63.20
20628;BME280;10473;42.734;24.258;2022-08-27T01:34:04;91580.72;;;18.41;63.18
20628;BME280;10473;42.734;24.258;2022-08-27T01:36:32;91582.75;;;18.37;63.46
20628;BME280;10473;42.734;24.258;2022-08-27T01:39:00;91584.84;;;18.30;63.51
20628;BME280;10473;42.734;24.258;2022-08-27T01:41:28;91584.31;;;18.19;63.71
20628;BME280;10473;42.734;24.258;2022-08-27T01:43:57;91574.25;;;18.23;63.49
20628;BME280;10473;42.734;24.258;2022-08-27T01:46:26;91580.22;;;18.14;63.72
20628;BME280;10473;42.734;24.258;2022-08-27T01:48:55;91578.53;;;18.20;63.75
20628;BME280;10473;42.734;24.258;2022-08-27T01:51:22;91576.44;;;18.28;63.70
20628;BME280;10473;42.734;24.258;2022-08-27T01:53:50;91569.56;;;18.27;63.30
20628;BME280;10473;42.734;24.258;2022-08-27T01:56:18;91572.44;;;18.20;63.66
20628;BME280;10473;42.734;24.258;2022-08-27T01:58:45;91578.38;;;18.27;63.02
20628;BME280;10473;42.734;24.258;2022-08-27T02:01:19;91584.84;;;18.30;63.04
20628;BME280;10473;42.734;24.258;2022-08-27T02:03:46;91572.06;;;18.18;62.96
20628;BME280;10473;42.734;24.258;2022-08-27T02:06:14;91569.97;;;18.25;63.20
20628;BME280;10473;42.734;24.258;2022-08-27T02:08:42;91568.88;;;18.23;63.72
20628;BME280;10473;42.734;24.258;2022-08-27T02:11:10;91567.81;;;18.20;63.68
20628;BME280;10473;42.734;24.258;2022-08-27T02:13:38;91574.09;;;18.14;63.56
20628;BME280;10473;42.734;24.258;2022-08-27T02:16:05;91565.88;;;18.21;63.54
20628;BME280;10473;42.734;24.258;2022-08-27T02:18:35;91575.75;;;18.24;63.17
20628;BME280;10473;42.734;24.258;2022-08-27T02:21:03;91567.81;;;18.20;63.80
20628;BME280;10473;42.734;24.258;2022-08-27T02:23:32;91574.66;;;18.21;63.66
20628;BME280;10473;42.734;24.258;2022-08-27T02:26:00;91570.56;;;18.17;63.71
20628;BME280;10473;42.734;24.258;2022-08-27T02:28:27;91569.94;;;17.77;64.89
20628;BME280;10473;42.734;24.258;2022-08-27T02:30:55;91578.28;;;17.99;64.70
20628;BME280;10473;42.734;24.258;2022-08-27T02:33:23;91574.44;;;18.00;64.43
20628;BME280;10473;42.734;24.258;2022-08-27T02:35:53;91578.53;;;18.04;64.35
20628;BME280;10473;42.734;24.258;2022-08-27T02:38:20;91581.53;;;18.06;64.49
20628;BME280;10473;42.734;24.258;2022-08-27T02:40:49;91574.09;;;17.98;64.51
20628;BME280;10473;42.734;24.258;2022-08-27T02:43:17;91582.53;;;17.96;64.39
20628;BME280;10473;42.734;24.258;2022-08-27T02:45:45;91583.13;;;18.04;63.73
20628;BME280;10473;42.734;24.258;2022-08-27T02:48:12;91583.13;;;18.04;64.27
20628;BME280;10473;42.734;24.258;2022-08-27T02:50:40;91580.81;;;18.06;64.28
20628;BME280;10473;42.734;24.258;2022-08-27T02:53:10;91579.63;;;17.91;64.87
20628;BME280;10473;42.734;24.258;2022-08-27T02:55:37;91576.16;;;17.74;65.35
20628;BME280;10473;42.734;24.258;2022-08-27T02:58:05;91578.34;;;17.79;64.91
20628;BME280;10473;42.734;24.258;2022-08-27T03:00:33;91583.88;;;17.88;65.02
20628;BME280;10473;42.734;24.258;2022-08-27T03:03:02;91579.53;;;17.94;64.65
20628;BME280;10473;42.734;24.258;2022-08-27T03:05:29;91580.44;;;17.88;64.98
20628;BME280;10473;42.734;24.258;2022-08-27T03:07:57;91583.69;;;17.79;64.92
20628;BME280;10473;42.734;24.258;2022-08-27T03:10:26;91572.38;;;17.72;65.01
20628;BME280;10473;42.734;24.258;2022-08-27T03:12:55;91576.94;;;17.91;64.18
20628;BME280;10473;42.734;24.258;2022-08-27T03:15:23;91578.94;;;17.87;64.36
20628;BME280;10473;42.734;24.258;2022-08-27T03:17:51;91581.97;;;17.53;65.56
20628;BME280;10473;42.734;24.258;2022-08-27T03:20:37;91579.25;;;17.73;64.88
20628;BME280;10473;42.734;24.258;2022-08-27T03:23:06;91584.28;;;17.71;65.21
20628;BME280;10473;42.734;24.258;2022-08-27T03:25:35;91581.66;;;17.67;65.49
20628;BME280;10473;42.734;24.258;2022-08-27T03:28:03;91600.59;;;17.76;64.86
20628;BME280;10473;42.734;24.258;2022-08-27T03:30:31;91594.34;;;17.83;64.98
20628;BME280;10473;42.734;24.258;2022-08-27T03:32:59;91596.00;;;17.77;64.97
20628;BME280;10473;42.734;24.258;2022-08-27T03:35:27;91602.38;;;17.28;66.25
20628;BME280;10473;42.734;24.258;2022-08-27T03:37:55;91599.34;;;17.26;66.63
20628;BME280;10473;42.734;24.258;2022-08-27T03:40:23;91588.31;;;17.04;66.99
20628;BME280;10473;42.734;24.258;2022-08-27T03:42:52;91600.31;;;17.16;66.64
20628;BME280;10473;42.734;24.258;2022-08-27T03:45:21;91612.13;;;17.38;66.61
20628;BME280;10473;42.734;24.258;2022-08-27T03:47:48;91610.69;;;17.33;66.44
20628;BME280;10473;42.734;24.258;2022-08-27T03:50:17;91612.19;;;17.34;66.52
20628;BME280;10473;42.734;24.258;2022-08-27T03:52:45;91609.66;;;17.47;66.06
20628;BME280;10473;42.734;24.258;2022-08-27T03:55:14;91622.91;;;17.54;65.88
20628;BME280;10473;42.734;24.258;2022-08-27T03:57:42;91612.19;;;17.54;65.67
20628;BME280;10473;42.734;24.258;2022-08-27T04:00:12;91619.41;;;17.57;65.44
20628;BME280;10473;42.734;24.258;2022-08-27T04:02:41;91619.06;;;17.55;65.76
20628;BME280;10473;42.734;24.258;2022-08-27T04:05:10;91618.03;;;17.49;65.81
20628;BME280;10473;42.734;24.258;2022-08-27T04:07:39;91617.13;;;17.55;65.42
20628;BME280;10473;42.734;24.258;2022-08-27T04:10:09;91610.41;;;17.47;65.50
20628;BME280;10473;42.734;24.258;2022-08-27T04:12:37;91623.09;;;17.63;65.20
20628;BME280;10473;42.734;24.258;2022-08-27T04:15:07;91616.94;;;17.66;65.19
20628;BME280;10473;42.734;24.258;2022-08-27T04:17:37;91619.78;;;17.75;64.92
20628;BME280;10473;42.734;24.258;2022-08-27T04:20:07;91619.16;;;17.87;64.55
20628;BME280;10473;42.734;24.258;2022-08-27T04:22:35;91631.69;;;17.90;64.05
20628;BME280;10473;42.734;24.258;2022-08-27T04:25:04;91627.03;;;17.94;64.54
20628;BME280;10473;42.734;24.258;2022-08-27T04:27:33;91627.19;;;17.87;64.43
20628;BME280;10473;42.734;24.258;2022-08-27T04:30:01;91630.97;;;18.05;64.19
20628;BME280;10473;42.734;24.258;2022-08-27T04:32:29;91629.34;;;18.27;63.87
20628;BME280;10473;42.734;24.258;2022-08-27T04:34:59;91635.81;;;18.46;63.75
20628;BME280;10473;42.734;24.258;2022-08-27T04:37:29;91633.97;;;18.59;63.37
20628;BME280;10473;42.734;24.258;2022-08-27T04:39:58;91636.47;;;18.82;62.92
20628;BME280;10473;42.734;24.258;2022-08-27T04:42:26;91637.56;;;19.13;61.86
20628;BME280;10473;42.734;24.258;2022-08-27T04:44:54;91639.53;;;19.41;61.99
20628;BME280;10473;42.734;24.258;2022-08-27T04:47:21;91641.88;;;19.67;60.57
20628;BME280;10473;42.734;24.258;2022-08-27T04:49:49;91645.22;;;19.84;60.23
20628;BME280;10473;42.734;24.258;2022-08-27T04:52:18;91642.44;;;20.00;59.64
20628;BME280;10473;42.734;24.258;2022-08-27T04:54:46;91648.63;;;20.25;59.14
20628;BME280;10473;42.734;24.258;2022-08-27T04:57:15;91653.47;;;20.55;58.80
20628;BME280;10473;42.734;24.258;2022-08-27T04:59:42;91660.44;;;20.90;58.20
20628;BME280;10473;42.734;24.258;2022-08-27T05:02:10;91653.13;;;21.25;55.47
20628;BME280;10473;42.734;24.258;2022-08-27T05:04:39;91655.78;;;21.59;57.00
20628;BME280;10473;42.734;24.258;2022-08-27T05:07:08;91653.09;;;21.80;56.73
20628;BME280;10473;42.734;24.258;2022-08-27T05:09:37;91654.25;;;22.22;53.38
20628;BME280;10473;42.734;24.258;2022-08-27T05:12:06;91655.19;;;22.59;52.66
20628;BME280;10473;42.734;24.258;2022-08-27T05:14:35;91666.41;;;22.48;52.18
20628;BME280;10473;42.734;24.258;2022-08-27T05:17:03;91664.22;;;22.65;52.61
20628;BME280;10473;42.734;24.258;2022-08-27T05:19:30;91666.75;;;23.08;53.66
20628;BME280;10473;42.734;24.258;2022-08-27T05:21:58;91667.34;;;23.12;52.22
20628;BME280;10473;42.734;24.258;2022-08-27T05:24:26;91655.09;;;23.38;52.35
20628;BME280;10473;42.734;24.258;2022-08-27T05:26:55;91656.59;;;23.48;51.63
20628;BME280;10473;42.734;24.258;2022-08-27T05:29:23;91662.28;;;23.86;53.25
20628;BME280;10473;42.734;24.258;2022-08-27T05:31:51;91662.91;;;23.81;51.32
20628;BME280;10473;42.734;24.258;2022-08-27T05:34:20;91658.81;;;23.22;53.17
20628;BME280;10473;42.734;24.258;2022-08-27T05:36:47;91660.19;;;23.36;53.81
20628;BME280;10473;42.734;24.258;2022-08-27T05:39:16;91667.09;;;23.73;56.28
20628;BME280;10473;42.734;24.258;2022-08-27T05:41:44;91670.41;;;23.95;53.10
20628;BME280;10473;42.734;24.258;2022-08-27T05:44:13;91672.50;;;23.82;52.05
20628;BME280;10473;42.734;24.258;2022-08-27T05:46:42;91670.94;;;24.35;55.54
20628;BME280;10473;42.734;24.258;2022-08-27T05:49:10;91677.38;;;24.46;50.81
20628;BME280;10473;42.734;24.258;2022-08-27T05:51:38;91673.78;;;24.40;50.94
20628;BME280;10473;42.734;24.258;2022-08-27T05:54:09;91680.31;;;24.66;50.47
20628;BME280;10473;42.734;24.258;2022-08-27T05:56:42;91673.00;;;24.90;53.45
20628;BME280;10473;42.734;24.258;2022-08-27T05:59:09;91680.16;;;25.35;48.72
20628;BME280;10473;42.734;24.258;2022-08-27T06:01:56;91672.06;;;25.73;51.34
20628;BME280;10473;42.734;24.258;2022-08-27T06:04:24;91674.09;;;25.17;49.89
20628;BME280;10473;42.734;24.258;2022-08-27T06:06:52;91679.72;;;24.71;50.12
20628;BME280;10473;42.734;24.258;2022-08-27T06:09:21;91677.16;;;25.33;51.89
20628;BME280;10473;42.734;24.258;2022-08-27T06:11:49;91679.19;;;25.85;49.55
20628;BME280;10473;42.734;24.258;2022-08-27T06:14:19;91676.25;;;26.12;50.06
20628;BME280;10473;42.734;24.258;2022-08-27T06:16:47;91670.53;;;25.72;46.97
20628;BME280;10473;42.734;24.258;2022-08-27T06:19:17;91663.06;;;24.97;49.99
20628;BME280;10473;42.734;24.258;2022-08-27T06:21:45;91686.41;;;25.50;48.73
20628;BME280;10473;42.734;24.258;2022-08-27T06:24:13;91684.31;;;25.45;49.45
20628;BME280;10473;42.734;24.258;2022-08-27T06:26:44;91683.84;;;25.70;49.14
20628;BME280;10473;42.734;24.258;2022-08-27T06:29:12;91687.41;;;26.29;46.91
20628;BME280;10473;42.734;24.258;2022-08-27T06:31:40;91689.97;;;26.76;49.46
20628;BME280;10473;42.734;24.258;2022-08-27T06:34:09;91684.13;;;26.97;44.81
20628;BME280;10473;42.734;24.258;2022-08-27T06:36:40;91687.31;;;26.81;43.01
20628;BME280;10473;42.734;24.258;2022-08-27T06:39:09;91683.81;;;27.44;43.90
20628;BME280;10473;42.734;24.258;2022-08-27T06:41:41;91688.34;;;27.87;47.48
20628;BME280;10473;42.734;24.258;2022-08-27T06:44:13;91673.88;;;27.21;43.38
20628;BME280;10473;42.734;24.258;2022-08-27T06:46:41;91690.91;;;26.87;45.42
20628;BME280;10473;42.734;24.258;2022-08-27T06:49:10;91684.47;;;27.05;45.51
20628;BME280;10473;42.734;24.258;2022-08-27T06:51:43;91684.03;;;26.92;44.93
20628;BME280;10473;42.734;24.258;2022-08-27T06:54:13;91693.16;;;26.74;42.87
20628;BME280;10473;42.734;24.258;2022-08-27T06:56:42;91685.47;;;26.73;44.50
20628;BME280;10473;42.734;24.258;2022-08-27T06:59:13;91694.88;;;26.05;46.48
20628;BME280;10473;42.734;24.258;2022-08-27T07:01:45;91693.34;;;25.89;47.57
20628;BME280;10473;42.734;24.258;2022-08-27T07:04:17;91694.19;;;26.48;46.97
20628;BME280;10473;42.734;24.258;2022-08-27T07:06:48;91691.59;;;25.63;45.07
20628;BME280;10473;42.734;24.258;2022-08-27T07:09:16;91701.75;;;25.91;46.23
20628;BME280;10473;42.734;24.258;2022-08-27T07:11:45;91697.97;;;25.98;44.72
20628;BME280;10473;42.734;24.258;2022-08-27T07:14:13;91707.81;;;26.62;50.30
20628;BME280;10473;42.734;24.258;2022-08-27T07:16:41;91700.63;;;26.50;45.86
20628;BME280;10473;42.734;24.258;2022-08-27T07:19:09;91707.34;;;26.11;45.49
20628;BME280;10473;42.734;24.258;2022-08-27T07:21:37;91704.56;;;26.20;43.72
20628;BME280;10473;42.734;24.258;2022-08-27T07:24:07;91693.44;;;26.47;47.23
20628;BME280;10473;42.734;24.258;2022-08-27T07:26:38;91708.84;;;26.12;46.80
20628;BME280;10473;42.734;24.258;2022-08-27T07:29:08;91703.47;;;25.65;46.20
20628;BME280;10473;42.734;24.258;2022-08-27T07:31:37;91714.03;;;26.39;50.57
20628;BME280;10473;42.734;24.258;2022-08-27T07:34:06;91702.50;;;27.02;44.68
20628;BME280;10473;42.734;24.258;2022-08-27T07:36:34;91703.69;;;27.50;46.14
20628;BME280;10473;42.734;24.258;2022-08-27T07:39:03;91708.72;;;26.59;43.76
20628;BME280;10473;42.734;24.258;2022-08-27T07:41:33;91699.91;;;27.62;44.59
20628;BME280;10473;42.734;24.258;2022-08-27T07:44:22;91710.19;;;27.18;42.24
20628;BME280;10473;42.734;24.258;2022-08-27T07:46:53;91704.88;;;27.29;42.09
20628;BME280;10473;42.734;24.258;2022-08-27T07:49:24;91704.91;;;27.69;41.91
20628;BME280;10473;42.734;24.258;2022-08-27T07:51:53;91711.69;;;28.14;44.14
20628;BME280;10473;42.734;24.258;2022-08-27T07:54:21;91704.72;;;28.58;40.18
20628;BME280;10473;42.734;24.258;2022-08-27T07:56:51;91698.56;;;28.63;39.81
20628;BME280;10473;42.734;24.258;2022-08-27T07:59:19;91699.03;;;29.18;40.94
20628;BME280;10473;42.734;24.258;2022-08-27T08:01:46;91699.00;;;28.56;38.62
20628;BME280;10473;42.734;24.258;2022-08-27T08:04:14;91711.53;;;29.30;41.12
20628;BME280;10473;42.734;24.258;2022-08-27T08:06:42;91708.59;;;29.81;38.62
20628;BME280;10473;42.734;24.258;2022-08-27T08:09:10;91712.16;;;30.04;37.72
20628;BME280;10473;42.734;24.258;2022-08-27T08:11:39;91713.50;;;30.19;37.42
20628;BME280;10473;42.734;24.258;2022-08-27T08:17:14;91692.59;;;29.58;38.87
20628;BME280;10473;42.734;24.258;2022-08-27T08:19:42;91698.59;;;30.20;41.51
20628;BME280;10473;42.734;24.258;2022-08-27T08:22:09;91707.91;;;30.61;36.42
20628;BME280;10473;42.734;24.258;2022-08-27T08:24:37;91712.16;;;30.73;34.17
20628;BME280;10473;42.734;24.258;2022-08-27T08:27:05;91706.41;;;29.96;36.21
20628;BME280;10473;42.734;24.258;2022-08-27T08:29:33;91705.38;;;30.47;38.44
20628;BME280;10473;42.734;24.258;2022-08-27T08:32:03;91696.91;;;30.34;36.83
20628;BME280;10473;42.734;24.258;2022-08-27T08:34:33;91705.63;;;30.54;36.34
20628;BME280;10473;42.734;24.258;2022-08-27T08:37:01;91706.94;;;30.70;36.43
20628;BME280;10473;42.734;24.258;2022-08-27T08:39:29;91704.41;;;30.61;36.61
20628;BME280;10473;42.734;24.258;2022-08-27T08:41:59;91701.16;;;30.46;37.41
20628;BME280;10473;42.734;24.258;2022-08-27T08:44:30;91706.69;;;30.73;36.29
20628;BME280;10473;42.734;24.258;2022-08-27T08:47:03;91705.19;;;29.92;36.25
20628;BME280;10473;42.734;24.258;2022-08-27T08:49:43;91696.41;;;29.77;34.27
20628;BME280;10473;42.734;24.258;2022-08-27T08:52:20;91710.22;;;29.57;36.88
20628;BME280;10473;42.734;24.258;2022-08-27T08:55:01;91705.25;;;28.62;36.47
20628;BME280;10473;42.734;24.258;2022-08-27T08:57:32;91698.84;;;28.40;38.05
20628;BME280;10473;42.734;24.258;2022-08-27T09:00:06;91706.41;;;28.81;37.95
20628;BME280;10473;42.734;24.258;2022-08-27T09:02:37;91701.75;;;28.87;36.39
20628;BME280;10473;42.734;24.258;2022-08-27T09:05:07;91708.13;;;29.46;34.70
20628;BME280;10473;42.734;24.258;2022-08-27T09:07:42;91712.38;;;29.89;36.19
20628;BME280;10473;42.734;24.258;2022-08-27T09:10:19;91711.59;;;29.41;32.66
20628;BME280;10473;42.734;24.258;2022-08-27T09:13:01;91708.59;;;29.81;33.15
20628;BME280;10473;42.734;24.258;2022-08-27T09:15:33;91718.06;;;29.44;33.57
20628;BME280;10473;42.734;24.258;2022-08-27T09:18:05;91714.63;;;29.91;33.94
20628;BME280;10473;42.734;24.258;2022-08-27T09:20:35;91706.56;;;30.29;32.20
20628;BME280;10473;42.734;24.258;2022-08-27T09:23:10;91708.91;;;30.69;32.62
20628;BME280;10473;42.734;24.258;2022-08-27T09:25:42;91713.22;;;31.25;34.38
20628;BME280;10473;42.734;24.258;2022-08-27T09:28:12;91710.69;;;31.49;32.02
20628;BME280;10473;42.734;24.258;2022-08-27T09:30:59;91707.19;;;31.43;29.88
20628;BME280;10473;42.734;24.258;2022-08-27T09:33:29;91717.66;;;30.95;30.62
20628;BME280;10473;42.734;24.258;2022-08-27T09:36:00;91714.41;;;30.97;30.70
20628;BME280;10473;42.734;24.258;2022-08-27T09:38:29;91703.63;;;30.38;29.53
20628;BME280;10473;42.734;24.258;2022-08-27T09:41:01;91718.81;;;30.45;30.88
20628;BME280;10473;42.734;24.258;2022-08-27T09:43:32;91707.31;;;30.19;31.01
20628;BME280;10473;42.734;24.258;2022-08-27T09:46:05;91707.22;;;30.94;31.35
20628;BME280;10473;42.734;24.258;2022-08-27T09:48:35;91705.72;;;31.42;31.77
20628;BME280;10473;42.734;24.258;2022-08-27T09:51:09;91712.88;;;31.67;31.70
20628;BME280;10473;42.734;24.258;2022-08-27T09:53:43;91711.59;;;31.90;33.50
20628;BME280;10473;42.734;24.258;2022-08-27T09:56:21;91713.69;;;32.36;33.16
20628;BME280;10473;42.734;24.258;2022-08-27T09:58:52;91706.00;;;32.23;29.47
20628;BME280;10473;42.734;24.258;2022-08-27T10:01:23;91704.22;;;31.08;27.43
20628;BME280;10473;42.734;24.258;2022-08-27T10:04:02;91697.00;;;30.89;29.12
20628;BME280;10473;42.734;24.258;2022-08-27T10:06:32;91701.72;;;30.88;31.36
20628;BME280;10473;42.734;24.258;2022-08-27T10:09:05;91704.47;;;31.16;28.13
20628;BME280;10473;42.734;24.258;2022-08-27T10:11:37;91707.31;;;30.24;28.70
20628;BME280;10473;42.734;24.258;2022-08-27T10:14:12;91705.22;;;29.97;28.47
20628;BME280;10473;42.734;24.258;2022-08-27T10:16:51;91702.75;;;30.10;29.34
20628;BME280;10473;42.734;24.258;2022-08-27T10:19:38;91702.09;;;30.32;29.67
20628;BME280;10473;42.734;24.258;2022-08-27T10:22:19;91706.13;;;30.36;30.32
20628;BME280;10473;42.734;24.258;2022-08-27T10:25:01;91705.63;;;30.43;31.41
20628;BME280;10473;42.734;24.258;2022-08-27T10:27:35;91701.13;;;29.76;30.82
20628;BME280;10473;42.734;24.258;2022-08-27T10:30:07;91705.31;;;30.19;30.71
20628;BME280;10473;42.734;24.258;2022-08-27T10:32:49;91700.63;;;29.72;31.87
20628;BME280;10473;42.734;24.258;2022-08-27T10:35:22;91694.63;;;29.68;31.96
20628;BME280;10473;42.734;24.258;2022-08-27T10:38:03;91687.91;;;29.64;32.04
20628;BME280;10473;42.734;24.258;2022-08-27T10:40:35;91701.69;;;29.86;31.71
20628;BME280;10473;42.734;24.258;2022-08-27T10:43:16;91692.31;;;30.03;30.99
20628;BME280;10473;42.734;24.258;2022-08-27T10:45:52;91694.16;;;30.28;33.44
20628;BME280;10473;42.734;24.258;2022-08-27T10:48:29;91699.72;;;30.72;31.93
20628;BME280;10473;42.734;24.258;2022-08-27T10:51:08;91706.22;;;31.08;30.83
20628;BME280;10473;42.734;24.258;2022-08-27T10:53:45;91700.97;;;31.43;32.64
20628;BME280;10473;42.734;24.258;2022-08-27T10:56:20;91707.38;;;31.78;31.63
20628;BME280;10473;42.734;24.258;2022-08-27T10:59:02;91701.19;;;30.62;31.36
20628;BME280;10473;42.734;24.258;2022-08-27T11:01:39;91689.94;;;30.38;30.65
20628;BME280;10473;42.734;24.258;2022-08-27T11:04:13;91707.03;;;30.11;31.48
20628;BME280;10473;42.734;24.258;2022-08-27T11:06:51;91704.38;;;30.39;31.92
20628;BME280;10473;42.734;24.258;2022-08-27T11:09:28;91700.00;;;30.96;32.47
20628;BME280;10473;42.734;24.258;2022-08-27T11:12:05;91704.25;;;31.30;31.32
20628;BME280;10473;42.734;24.258;2022-08-27T11:14:34;91706.94;;;31.52;30.94
20628;BME280;10473;42.734;24.258;2022-08-27T11:17:06;91696.19;;;31.65;30.03
20628;BME280;10473;42.734;24.258;2022-08-27T11:19:46;91702.16;;;31.80;33.20
20628;BME280;10473;42.734;24.258;2022-08-27T11:22:21;91703.09;;;31.99;31.60
20628;BME280;10473;42.734;24.258;2022-08-27T11:24:56;91700.31;;;32.10;32.34
20628;BME280;10473;42.734;24.258;2022-08-27T11:27:29;91701.09;;;32.05;30.15
20628;BME280;10473;42.734;24.258;2022-08-27T11:30:00;91696.69;;;31.80;31.05
20628;BME280;10473;42.734;24.258;2022-08-27T11:32:39;91694.72;;;31.75;30.06
20628;BME280;10473;42.734;24.258;2022-08-27T11:35:12;91694.50;;;31.35;31.43
20628;BME280;10473;42.734;24.258;2022-08-27T11:38:12;91693.78;;;31.23;31.89
20628;BME280;10473;42.734;24.258;2022-08-27T11:40:56;91699.00;;;31.21;32.39
20628;BME280;10473;42.734;24.258;2022-08-27T11:43:33;91675.84;;;31.00;32.29
20628;BME280;10473;42.734;24.258;2022-08-27T11:46:05;91686.28;;;31.07;32.33
20628;BME280;10473;42.734;24.258;2022-08-27T11:48:38;91686.78;;;30.78;32.38
20628;BME280;10473;42.734;24.258;2022-08-27T11:51:07;91673.38;;;30.80;32.68
20628;BME280;10473;42.734;24.258;2022-08-27T11:53:38;91684.63;;;30.07;31.74
20628;BME280;10473;42.734;24.258;2022-08-27T11:56:15;91676.19;;;29.58;33.00
20628;BME280;10473;42.734;24.258;2022-08-27T11:58:46;91681.34;;;29.98;33.48
20628;BME280;10473;42.734;24.258;2022-08-27T12:01:15;91673.31;;;29.78;35.05
20628;BME280;10473;42.734;24.258;2022-08-27T12:03:43;91676.75;;;29.67;34.95
20628;BME280;10473;42.734;24.258;2022-08-27T12:06:21;91676.53;;;29.76;34.22
20628;BME280;10473;42.734;24.258;2022-08-27T12:08:52;91670.34;;;29.81;33.76
20628;BME280;10473;42.734;24.258;2022-08-27T12:11:32;91669.72;;;30.08;35.10
20628;BME280;10473;42.734;24.258;2022-08-27T12:14:14;91666.44;;;29.99;33.36
20628;BME280;10473;42.734;24.258;2022-08-27T12:16:52;91676.22;;;30.16;33.47
20628;BME280;10473;42.734;24.258;2022-08-27T12:19:32;91670.09;;;29.79;34.96
20628;BME280;10473;42.734;24.258;2022-08-27T12:22:24;91667.56;;;29.70;34.54
20628;BME280;10473;42.734;24.258;2022-08-27T12:24:57;91667.78;;;29.19;35.25
20628;BME280;10473;42.734;24.258;2022-08-27T12:27:30;91657.38;;;28.36;35.45
20628;BME280;10473;42.734;24.258;2022-08-27T12:30:03;91663.06;;;28.58;35.47
20628;BME280;10473;42.734;24.258;2022-08-27T12:32:36;91669.88;;;28.73;36.22
20628;BME280;10473;42.734;24.258;2022-08-27T12:35:09;91670.06;;;28.95;37.57
20628;BME280;10473;42.734;24.258;2022-08-27T12:37:43;91650.81;;;29.04;36.62
20628;BME280;10473;42.734;24.258;2022-08-27T12:40:18;91671.28;;;29.25;35.39
20628;BME280;10473;42.734;24.258;2022-08-27T12:42:49;91663.47;;;29.49;35.81
20628;BME280;10473;42.734;24.258;2022-08-27T12:45:19;91663.03;;;29.14;35.29
20628;BME280;10473;42.734;24.258;2022-08-27T12:47:47;91660.97;;;28.78;35.85
20628;BME280;10473;42.734;24.258;2022-08-27T12:50:21;91659.59;;;28.88;35.93
20628;BME280;10473;42.734;24.258;2022-08-27T12:53:05;91664.56;;;29.21;37.12
20628;BME280;10473;42.734;24.258;2022-08-27T12:55:47;91657.97;;;29.38;36.13
20628;BME280;10473;42.734;24.258;2022-08-27T12:58:28;91654.22;;;29.36;35.23
20628;BME280;10473;42.734;24.258;2022-08-27T13:01:17;91658.38;;;29.68;36.36
20628;BME280;10473;42.734;24.258;2022-08-27T13:03:50;91665.66;;;29.87;34.90
20628;BME280;10473;42.734;24.258;2022-08-27T13:06:24;91659.22;;;30.01;36.58
20628;BME280;10473;42.734;24.258;2022-08-27T13:08:53;91664.69;;;30.01;33.50
20628;BME280;10473;42.734;24.258;2022-08-27T13:11:24;91666.13;;;29.80;34.40
20628;BME280;10473;42.734;24.258;2022-08-27T13:14:05;91658.22;;;29.93;35.29